Time;durP1;ratioP1;P1;durP2;ratioP2;P2;SDS_P1;SDS_P2;PMS_P1;PMS_P2;Temp;Humidity;BMP_temperature;BMP_pressure;BME280_temperature;BME280_humidity;BME280_pressure;Samples;Min_cycle;Max_cycle;Signal;HPM_P1;HPM_P2
2022/09/05 00:00:18;;;;;;;7.20;3.35;;;19.50;99.90;;;;;;5098467;28;20048;-52
2022/09/05 00:02:59;;;;;;;7.97;3.65;;;19.40;99.90;;;;;;5097640;28;20054;-52
2022/09/05 00:05:53;;;;;;;6.65;4.05;;;19.40;99.90;;;;;;5098186;28;20703;-53
2022/09/05 00:08:32;;;;;;;7.88;3.97;;;19.40;99.90;;;;;;5097983;28;20082;-53
2022/09/05 00:11:26;;;;;;;6.45;3.65;;;19.40;99.90;;;;;;5097665;28;20075;-51
2022/09/05 00:14:21;;;;;;;9.63;3.80;;;19.30;99.90;;;;;;5098648;28;20440;-52
2022/09/05 00:17:01;;;;;;;8.32;3.90;;;19.30;99.90;;;;;;5091766;28;20064;-52
2022/09/05 00:19:39;;;;;;;6.82;3.38;;;19.30;99.90;;;;;;5077207;28;20044;-50
2022/09/05 00:22:26;;;;;;;7.05;3.80;;;19.20;99.90;;;;;;5078141;28;20059;-52
2022/09/05 00:25:16;;;;;;;7.80;4.25;;;19.20;99.90;;;;;;5077456;28;20076;-51
2022/09/05 00:27:47;;;;;;;7.70;3.80;;;19.20;99.90;;;;;;5077439;28;20064;-52
2022/09/05 00:30:16;;;;;;;6.60;3.70;;;19.20;99.90;;;;;;5077886;28;20048;-51
2022/09/05 00:33:03;;;;;;;7.15;3.78;;;19.20;99.90;;;;;;5077275;28;20096;-51
2022/09/05 00:35:52;;;;;;;6.65;3.80;;;19.20;99.90;;;;;;5078004;28;20044;-52
2022/09/05 00:38:22;;;;;;;6.97;3.67;;;19.20;99.90;;;;;;5087127;28;20044;-52
2022/09/05 00:41:03;;;;;;;6.57;3.55;;;19.20;99.90;;;;;;5097175;28;20119;-52
2022/09/05 00:43:42;;;;;;;9.95;3.80;;;19.20;99.90;;;;;;5097945;28;20125;-50
2022/09/05 00:46:21;;;;;;;6.30;3.63;;;19.10;99.90;;;;;;5097435;28;20044;-52
2022/09/05 00:49:12;;;;;;;6.50;3.70;;;19.10;99.90;;;;;;5097766;28;20047;-49
2022/09/05 00:51:48;;;;;;;7.35;4.03;;;19.20;99.90;;;;;;5097890;28;20055;-51
2022/09/05 00:54:22;;;;;;;7.20;4.20;;;19.10;99.90;;;;;;5097042;28;20051;-53
2022/09/05 00:57:19;;;;;;;7.75;4.22;;;19.10;99.90;;;;;;5098009;28;20043;-52
2022/09/05 01:00:26;;;;;;;8.95;3.88;;;19.00;99.90;;;;;;5097732;28;20052;-52
2022/09/05 01:03:25;;;;;;;8.27;4.05;;;19.00;99.90;;;;;;5088270;28;20559;-51
2022/09/05 01:06:33;;;;;;;9.05;4.70;;;19.00;99.90;;;;;;5098345;28;20051;-52
2022/09/05 01:09:21;;;;;;;7.57;4.05;;;19.00;99.90;;;;;;5100127;28;20052;-50
2022/09/05 01:11:59;;;;;;;8.75;4.22;;;19.00;99.90;;;;;;5101142;28;20048;-49
2022/09/05 01:14:33;;;;;;;6.78;3.42;;;19.00;99.90;;;;;;5101642;28;20058;-51
2022/09/05 01:17:11;;;;;;;8.38;3.85;;;18.90;99.90;;;;;;5093086;28;20041;-54
2022/09/05 01:19:54;;;;;;;6.88;4.30;;;18.90;99.90;;;;;;5080508;28;20048;-52
2022/09/05 01:22:20;;;;;;;7.57;4.18;;;18.90;99.90;;;;;;5081121;28;20051;-51
2022/09/05 01:25:27;;;;;;;7.38;4.00;;;18.90;99.90;;;;;;5080242;28;20045;-51
2022/09/05 01:28:05;;;;;;;7.57;4.28;;;18.90;99.90;;;;;;5045814;28;20048;-51
2022/09/05 01:31:12;;;;;;;8.00;4.13;;;18.90;99.90;;;;;;5079573;28;20044;-52
2022/09/05 01:34:10;;;;;;;8.18;4.70;;;18.90;99.90;;;;;;5060717;28;20044;-52
2022/09/05 01:36:52;;;;;;;8.27;4.32;;;18.80;99.90;;;;;;5080405;28;20043;-52
2022/09/05 01:39:20;;;;;;;8.45;4.25;;;18.80;99.90;;;;;;5098443;28;20044;-51
2022/09/05 01:42:03;;;;;;;11.90;5.38;;;18.80;99.90;;;;;;5100668;28;20074;-51
2022/09/05 01:44:50;;;;;;;8.02;4.25;;;18.80;99.90;;;;;;5100810;28;20055;-52
2022/09/05 01:47:48;;;;;;;9.50;5.82;;;18.70;99.90;;;;;;5100925;28;20052;-52
2022/09/05 01:50:23;;;;;;;9.40;5.55;;;18.70;99.90;;;;;;5098919;28;20056;-52
2022/09/05 01:53:24;;;;;;;8.85;4.72;;;18.70;99.90;;;;;;5099501;28;20111;-52
2022/09/05 01:56:26;;;;;;;8.50;5.45;;;18.70;99.90;;;;;;5100815;28;20813;-51
2022/09/05 01:59:10;;;;;;;9.30;5.10;;;18.70;99.90;;;;;;5099800;28;20060;-49
2022/09/05 02:02:06;;;;;;;8.88;5.13;;;18.70;99.90;;;;;;5100475;28;20052;-51
2022/09/05 02:04:40;;;;;;;9.32;4.97;;;18.70;99.90;;;;;;5100541;28;20055;-52
2022/09/05 02:07:31;;;;;;;10.57;5.25;;;18.60;99.90;;;;;;5099855;28;20606;-52
2022/09/05 02:09:59;;;;;;;9.65;4.90;;;18.70;99.90;;;;;;5099236;28;20107;-52
2022/09/05 02:12:37;;;;;;;9.75;5.30;;;18.60;99.90;;;;;;5100819;28;20051;-49
2022/09/05 02:15:08;;;;;;;10.32;5.28;;;18.60;99.90;;;;;;5100145;28;20366;-50
2022/09/05 02:17:40;;;;;;;8.20;5.22;;;18.60;99.90;;;;;;5085964;28;20058;-52
2022/09/05 02:20:09;;;;;;;;;;;18.60;99.90;;;;;;5079690;28;20045;-49
2022/09/05 02:22:50;;;;;;;9.15;5.20;;;18.50;99.90;;;;;;5080258;28;19928;-51
2022/09/05 02:25:23;;;;;;;8.32;4.88;;;18.50;99.90;;;;;;5079976;28;20044;-52
2022/09/05 02:27:57;;;;;;;8.52;5.65;;;18.50;99.90;;;;;;5079383;28;20620;-51
2022/09/05 02:30:25;;;;;;;9.30;5.60;;;18.50;99.90;;;;;;5079718;28;20493;-53
2022/09/05 02:33:08;;;;;;;8.95;5.50;;;18.40;99.90;;;;;;5078738;28;20107;-50
2022/09/05 02:35:47;;;;;;;9.15;6.25;;;18.50;99.90;;;;;;5079900;28;20052;-53
2022/09/05 02:38:27;;;;;;;7.93;5.70;;;18.50;99.90;;;;;;5088217;28;20040;-50
2022/09/05 02:41:07;;;;;;;8.00;4.72;;;18.40;99.90;;;;;;5099345;28;20124;-52
2022/09/05 02:43:47;;;;;;;9.38;5.50;;;18.40;99.90;;;;;;5099991;28;20519;-51
2022/09/05 02:46:52;;;;;;;8.43;5.53;;;18.40;99.90;;;;;;5099406;28;20401;-50
2022/09/05 02:49:30;;;;;;;10.02;5.18;;;18.40;99.90;;;;;;5076008;28;20081;-52
2022/09/05 02:52:06;;;;;;;9.65;5.60;;;18.30;99.90;;;;;;5076851;28;20060;-49
2022/09/05 02:54:52;;;;;;;10.57;5.63;;;18.30;99.90;;;;;;5090301;28;20067;-50
2022/09/05 02:57:35;;;;;;;9.73;6.10;;;18.30;99.90;;;;;;5099157;28;20063;-50
2022/09/05 03:00:30;;;;;;;9.02;6.03;;;18.20;99.90;;;;;;5099373;28;20141;-50
2022/09/05 03:03:04;;;;;;;9.82;6.25;;;18.10;99.90;;;;;;5098643;28;20044;-52
2022/09/05 03:05:34;;;;;;;9.88;6.10;;;18.10;99.90;;;;;;5099559;28;20044;-51
2022/09/05 03:08:03;;;;;;;8.88;5.80;;;18.10;99.90;;;;;;5099371;28;20040;-52
2022/09/05 03:10:52;;;;;;;9.27;6.00;;;18.00;99.90;;;;;;5098698;28;20039;-50
2022/09/05 03:13:42;;;;;;;10.45;6.60;;;18.00;99.90;;;;;;5099100;28;20117;-52
2022/09/05 03:16:19;;;;;;;10.18;6.38;;;17.90;99.90;;;;;;5097332;28;20095;-49
2022/09/05 03:19:07;;;;;;;9.35;6.32;;;17.80;99.90;;;;;;5078579;28;20074;-51
2022/09/05 03:22:02;;;;;;;9.60;6.70;;;17.70;99.90;;;;;;5078600;28;20063;-52
2022/09/05 03:24:49;;;;;;;10.07;6.57;;;17.70;99.90;;;;;;5077933;28;20049;-52
2022/09/05 03:27:45;;;;;;;8.88;6.00;;;17.70;99.90;;;;;;5078653;28;20496;-49
2022/09/05 03:30:11;;;;;;;10.40;6.00;;;17.60;99.90;;;;;;5078049;28;20585;-51
2022/09/05 03:33:16;;;;;;;7.95;6.03;;;17.60;99.90;;;;;;5077903;28;20048;-53
2022/09/05 03:36:09;;;;;;;10.35;6.30;;;17.50;99.90;;;;;;5078530;28;20041;-50
2022/09/05 03:39:01;;;;;;;8.75;6.40;;;17.50;99.90;;;;;;5089766;28;20512;-52
2022/09/05 03:41:48;;;;;;;9.57;6.45;;;17.50;99.90;;;;;;5097883;28;20113;-49
2022/09/05 03:44:42;;;;;;;10.10;6.43;;;17.50;99.90;;;;;;5094600;28;20603;-51
2022/09/05 03:47:16;;;;;;;8.57;6.30;;;17.50;99.90;;;;;;5098562;28;20047;-53
2022/09/05 03:49:51;;;;;;;10.63;6.35;;;17.50;99.90;;;;;;5097958;28;20047;-50
2022/09/05 03:52:44;;;;;;;9.85;6.30;;;17.40;99.90;;;;;;5098753;28;20069;-53
2022/09/05 03:55:18;;;;;;;7.75;5.63;;;17.40;99.90;;;;;;5098311;28;20036;-51
2022/09/05 03:58:12;;;;;;;10.45;6.55;;;17.40;99.90;;;;;;5097849;28;20606;-49
2022/09/05 04:00:46;;;;;;;9.23;5.95;;;17.30;99.90;;;;;;5098755;28;20048;-51
2022/09/05 04:03:30;;;;;;;8.88;6.55;;;17.30;99.90;;;;;;5098042;28;20092;-52
2022/09/05 04:06:07;;;;;;;9.60;7.10;;;17.30;99.90;;;;;;5098355;28;20056;-51
2022/09/05 04:08:41;;;;;;;10.18;6.50;;;17.30;99.90;;;;;;5097149;28;20040;-52
2022/09/05 04:11:20;;;;;;;8.90;6.47;;;17.20;99.90;;;;;;5097840;28;20047;-52
2022/09/05 04:13:52;;;;;;;10.88;6.65;;;17.20;99.90;;;;;;5098578;28;20048;-51
2022/09/05 04:16:28;;;;;;;11.48;6.03;;;17.30;99.90;;;;;;5095614;28;20036;-52
2022/09/05 04:19:27;;;;;;;9.88;6.55;;;17.30;99.90;;;;;;5077736;28;20048;-52
2022/09/05 04:21:55;;;;;;;9.23;6.15;;;17.30;99.90;;;;;;5078076;28;20524;-52
2022/09/05 04:24:31;;;;;;;8.23;6.38;;;17.30;99.90;;;;;;5077095;28;20052;-51
2022/09/05 04:27:16;;;;;;;8.75;6.38;;;17.20;99.90;;;;;;5078277;28;20393;-51
2022/09/05 04:29:57;;;;;;;10.25;6.90;;;17.20;99.90;;;;;;5078006;28;20048;-51
2022/09/05 04:32:44;;;;;;;8.88;7.07;;;17.20;99.90;;;;;;5077255;28;20056;-49
2022/09/05 04:35:34;;;;;;;9.65;6.47;;;17.20;99.90;;;;;;5078269;28;20093;-53
2022/09/05 04:38:15;;;;;;;9.48;6.78;;;17.30;99.90;;;;;;5084503;28;20048;-51
2022/09/05 04:41:02;;;;;;;9.07;6.18;;;17.20;99.90;;;;;;5097833;28;20071;-52
2022/09/05 04:43:53;;;;;;;10.07;6.90;;;17.10;99.90;;;;;;5102202;28;20072;-49
2022/09/05 04:46:40;;;;;;;10.85;6.68;;;17.10;99.90;;;;;;5101604;28;20040;-50
2022/09/05 04:49:18;;;;;;;8.85;6.07;;;17.10;99.90;;;;;;5100372;28;20067;-51
2022/09/05 04:52:27;;;;;;;9.20;6.53;;;17.10;99.90;;;;;;5101950;28;20055;-52
2022/09/05 04:55:09;;;;;;;9.85;7.45;;;17.20;99.90;;;;;;5090944;28;20063;-49
2022/09/05 04:57:53;;;;;;;9.43;6.18;;;17.20;99.90;;;;;;5101394;28;20060;-52
2022/09/05 05:00:47;;;;;;;9.55;6.63;;;17.20;99.90;;;;;;5102096;28;20185;-51
2022/09/05 05:03:16;;;;;;;10.30;6.65;;;17.20;99.90;;;;;;5101344;28;20047;-52
2022/09/05 05:05:41;;;;;;;12.10;7.38;;;17.20;99.90;;;;;;5101971;28;20075;-49
2022/09/05 05:08:18;;;;;;;9.68;6.65;;;17.20;99.90;;;;;;5097619;28;20048;-50
2022/09/05 05:11:07;;;;;;;13.95;7.82;;;17.10;99.90;;;;;;5097439;28;20063;-50
2022/09/05 05:13:45;;;;;;;8.73;6.30;;;17.10;99.90;;;;;;5098551;28;20052;-49
2022/09/05 05:16:17;;;;;;;10.20;6.70;;;17.20;99.90;;;;;;5096249;28;20500;-52
2022/09/05 05:19:15;;;;;;;10.85;6.95;;;17.10;99.90;;;;;;5077415;28;20052;-48
2022/09/05 05:21:54;;;;;;;12.23;7.38;;;17.10;99.90;;;;;;5073951;28;20053;-51
2022/09/05 05:24:28;;;;;;;9.05;7.28;;;17.20;99.90;;;;;;5077116;28;20110;-49
2022/09/05 05:27:24;;;;;;;13.10;6.68;;;17.20;99.90;;;;;;5077957;28;20059;-51
2022/09/05 05:30:03;;;;;;;10.73;7.40;;;17.20;99.90;;;;;;5077552;28;20048;-52
2022/09/05 05:32:41;;;;;;;19.45;12.98;;;17.20;99.90;;;;;;5076520;28;20060;-51
2022/09/05 05:35:14;;;;;;;10.63;7.45;;;17.20;99.90;;;;;;5077946;28;20135;-49
2022/09/05 05:37:39;;;;;;;12.70;7.50;;;17.30;99.90;;;;;;5081092;28;20051;-49
2022/09/05 05:40:18;;;;;;;11.13;6.63;;;17.30;99.90;;;;;;5097743;28;20119;-52
2022/09/05 05:42:45;;;;;;;12.23;7.03;;;17.40;99.90;;;;;;5097373;28;20032;-51
2022/09/05 05:45:27;;;;;;;8.95;7.30;;;17.40;99.90;;;;;;5095812;28;20044;-49
2022/09/05 05:48:05;;;;;;;9.85;7.22;;;17.40;99.90;;;;;;5097596;28;20048;-52
2022/09/05 05:51:02;;;;;;;10.15;7.30;;;17.40;99.90;;;;;;5096807;28;20096;-51
2022/09/05 05:53:40;;;;;;;11.13;6.88;;;17.50;99.90;;;;;;5096858;28;20108;-50
2022/09/05 05:56:27;;;;;;;10.80;7.32;;;17.60;99.90;;;;;;5098170;28;20055;-51
2022/09/05 05:58:56;;;;;;;10.20;6.72;;;17.60;99.90;;;;;;5099306;28;20076;-48
2022/09/05 06:01:33;;;;;;;11.20;7.00;;;17.60;99.90;;;;;;5099660;28;20070;-49
2022/09/05 06:04:33;;;;;;;12.40;7.43;;;17.70;99.90;;;;;;5099659;28;20059;-50
2022/09/05 06:07:01;;;;;;;12.02;7.40;;;17.70;99.90;;;;;;5099260;28;20088;-50
2022/09/05 06:09:57;;;;;;;9.88;7.10;;;17.80;99.90;;;;;;5098762;28;20051;-52
2022/09/05 06:13:01;;;;;;;10.05;7.05;;;17.70;99.90;;;;;;5099773;28;20044;-52
2022/09/05 06:16:04;;;;;;;9.57;6.72;;;17.80;99.90;;;;;;5099880;28;20043;-49
2022/09/05 06:18:54;;;;;;;12.25;7.38;;;17.90;99.90;;;;;;5080526;28;20040;-53
2022/09/05 06:21:22;;;;;;;10.75;7.72;;;18.00;99.90;;;;;;5080136;28;20048;-52
2022/09/05 06:23:48;;;;;;;10.98;7.40;;;18.00;99.90;;;;;;5078046;28;20052;-52
2022/09/05 06:26:55;;;;;;;10.43;7.40;;;18.00;99.90;;;;;;5080047;28;20558;-52
2022/09/05 06:29:48;;;;;;;12.43;7.38;;;18.10;99.90;;;;;;5079559;28;20125;-50
2022/09/05 06:32:20;;;;;;;11.55;8.48;;;18.20;99.90;;;;;;5079256;28;20052;-51
2022/09/05 06:35:15;;;;;;;12.85;7.57;;;18.20;99.90;;;;;;5080113;28;20048;-52
2022/09/05 06:38:07;;;;;;;10.82;7.78;;;18.30;99.90;;;;;;5083460;28;20032;-50
2022/09/05 06:40:50;;;;;;;10.70;7.20;;;18.40;99.90;;;;;;5097982;28;20103;-51
2022/09/05 06:43:41;;;;;;;13.57;7.80;;;18.50;99.90;;;;;;5099989;28;20095;-49
2022/09/05 06:46:34;;;;;;;12.93;7.07;;;18.50;99.90;;;;;;5097322;28;20170;-50
2022/09/05 06:49:31;;;;;;;11.52;7.72;;;18.60;99.90;;;;;;5099454;28;20044;-52
2022/09/05 06:52:05;;;;;;;12.48;7.53;;;18.70;99.90;;;;;;5099920;28;20048;-51
2022/09/05 06:54:55;;;;;;;10.65;7.10;;;18.80;99.90;;;;;;5099101;28;20048;-50
2022/09/05 06:57:43;;;;;;;10.93;7.00;;;18.90;99.90;;;;;;5099230;28;20059;-55
2022/09/05 07:00:31;;;;;;;9.73;6.63;;;19.00;99.90;;;;;;5099576;28;20048;-51
2022/09/05 07:03:21;;;;;;;11.05;7.20;;;19.10;99.90;;;;;;5098561;28;20099;-52
2022/09/05 07:06:16;;;;;;;9.98;7.15;;;19.10;99.90;;;;;;5097865;28;20048;-50
2022/09/05 07:09:21;;;;;;;11.38;6.90;;;19.20;99.90;;;;;;5099218;28;20048;-52
2022/09/05 07:12:18;;;;;;;11.38;6.85;;;19.30;99.90;;;;;;5098836;28;20040;-52
2022/09/05 07:14:56;;;;;;;10.25;6.63;;;19.40;99.90;;;;;;5097564;28;20047;-50
2022/09/05 07:17:34;;;;;;;11.90;7.18;;;19.50;99.90;;;;;;5087606;28;20052;-50
2022/09/05 07:20:02;;;;;;;9.82;6.43;;;19.50;99.90;;;;;;5078388;28;20041;-49
2022/09/05 07:22:34;;;;;;;9.52;6.72;;;19.60;99.90;;;;;;5079119;28;20040;-52
2022/09/05 07:25:12;;;;;;;;;;;19.70;99.90;;;;;;5079253;28;20570;-51
2022/09/05 07:27:53;;;;;;;13.40;6.68;;;19.70;99.90;;;;;;5078387;28;19925;-52
2022/09/05 07:30:19;;;;;;;10.98;7.00;;;19.80;99.90;;;;;;5078838;28;20043;-52
2022/09/05 07:32:50;;;;;;;13.38;6.28;;;19.90;99.90;;;;;;5077834;28;20044;-51
2022/09/05 07:35:30;;;;;;;9.18;5.85;;;20.00;99.90;;;;;;5079026;28;20115;-52
2022/09/05 07:38:03;;;;;;;10.05;5.93;;;20.20;99.90;;;;;;5066746;28;20040;-50
2022/09/05 07:40:34;;;;;;;9.60;6.18;;;20.20;99.90;;;;;;5097133;28;20040;-49
2022/09/05 07:43:14;;;;;;;8.85;6.10;;;20.30;99.90;;;;;;5098805;28;20408;-52
2022/09/05 07:46:10;;;;;;;10.15;6.40;;;20.40;99.90;;;;;;5098172;28;20140;-51
2022/09/05 07:48:54;;;;;;;9.25;6.35;;;20.50;99.90;;;;;;5098174;28;20064;-52
2022/09/05 07:51:26;;;;;;;9.32;6.38;;;20.60;99.90;;;;;;5098388;28;20512;-52
2022/09/05 07:53:53;;;;;;;;;;;20.70;99.90;;;;;;5098492;28;20050;-50
2022/09/05 07:56:44;;;;;;;11.27;6.18;;;20.70;99.90;;;;;;5098855;28;19930;-52
2022/09/05 07:59:13;;;;;;;10.40;6.00;;;20.90;99.90;;;;;;5098183;28;20078;-52
2022/09/05 08:01:44;;;;;;;10.10;6.75;;;21.00;99.90;;;;;;5098367;28;20051;-51
2022/09/05 08:04:32;;;;;;;11.87;6.47;;;21.10;99.90;;;;;;5098364;28;20066;-51
2022/09/05 08:07:09;;;;;;;11.75;6.82;;;21.10;99.90;;;;;;5097877;28;20266;-53
2022/09/05 08:10:02;;;;;;;11.70;7.20;;;21.10;99.90;;;;;;5098408;28;20055;-50
2022/09/05 08:12:36;;;;;;;9.68;6.40;;;21.30;99.90;;;;;;5098465;28;20162;-52
2022/09/05 08:15:06;;;;;;;10.82;6.20;;;21.40;99.90;;;;;;5097932;28;20064;-52
2022/09/05 08:17:40;;;;;;;11.38;6.78;;;21.40;99.90;;;;;;5085420;28;20275;-50
2022/09/05 08:20:15;;;;;;;10.65;6.57;;;21.40;99.90;;;;;;5077412;28;20043;-50
2022/09/05 08:22:55;;;;;;;13.10;7.28;;;21.40;99.90;;;;;;5078050;28;20059;-50
2022/09/05 08:25:29;;;;;;;10.43;7.22;;;21.40;99.90;;;;;;5076428;28;20060;-52
2022/09/05 08:28:21;;;;;;;10.05;6.38;;;21.50;99.90;;;;;;5077593;28;20097;-51
2022/09/05 08:30:59;;;;;;;9.20;5.88;;;21.50;99.90;;;;;;5059424;28;20051;-52
2022/09/05 08:33:31;;;;;;;8.70;6.07;;;21.70;99.90;;;;;;5077476;28;20040;-48
2022/09/05 08:36:19;;;;;;;9.90;6.38;;;21.80;99.90;;;;;;5077572;28;20037;-51
2022/09/05 08:38:45;;;;;;;10.13;6.47;;;21.90;99.90;;;;;;5089367;28;20052;-52
2022/09/05 08:41:24;;;;;;;9.20;6.30;;;21.90;99.90;;;;;;5097263;28;20071;-52
2022/09/05 08:44:12;;;;;;;8.05;6.10;;;22.00;99.90;;;;;;5098273;28;20040;-51
2022/09/05 08:47:13;;;;;;;11.32;6.45;;;22.00;99.90;;;;;;5097904;28;20047;-51
2022/09/05 08:50:19;;;;;;;8.98;6.38;;;22.10;99.90;;;;;;5095980;28;20055;-51
2022/09/05 08:52:55;;;;;;;9.02;6.78;;;22.20;99.90;;;;;;5090164;28;20059;-51
2022/09/05 08:55:48;;;;;;;10.57;6.05;;;22.30;99.90;;;;;;5097881;28;20495;-52
2022/09/05 08:58:39;;;;;;;9.43;5.28;;;22.50;99.90;;;;;;5096846;28;20048;-52
2022/09/05 09:01:14;;;;;;;12.43;6.20;;;22.60;99.90;;;;;;5098198;28;20048;-52
2022/09/05 09:03:55;;;;;;;9.60;6.93;;;22.80;99.90;;;;;;5097915;28;20047;-52
2022/09/05 09:06:27;;;;;;;;;;;22.90;99.90;;;;;;5097599;28;20507;-53
2022/09/05 09:09:02;;;;;;;10.68;5.85;;;22.90;99.90;;;;;;5096174;28;19924;-52
2022/09/05 09:11:40;;;;;;;8.18;5.63;;;23.10;99.90;;;;;;5097035;28;20044;-51
2022/09/05 09:14:36;;;;;;;7.30;4.90;;;23.20;99.90;;;;;;5097815;28;20048;-52
2022/09/05 09:17:22;;;;;;;9.10;5.88;;;23.30;99.90;;;;;;5088920;28;20053;-53
2022/09/05 09:20:13;;;;;;;9.13;5.38;;;23.40;99.90;;;;;;5076754;28;20045;-55
2022/09/05 09:23:16;;;;;;;8.30;5.32;;;23.50;99.90;;;;;;5077431;28;20047;-52
2022/09/05 09:26:09;;;;;;;8.63;5.72;;;23.50;99.90;;;;;;5077391;28;20428;-52
2022/09/05 09:28:44;;;;;;;8.48;5.55;;;23.60;99.90;;;;;;5080144;28;20060;-51
2022/09/05 09:31:22;;;;;;;7.53;5.03;;;23.60;99.90;;;;;;5081370;28;20471;-52
2022/09/05 09:34:13;;;;;;;8.23;5.15;;;23.70;99.90;;;;;;5080947;28;20066;-52
2022/09/05 09:37:00;;;;;;;7.40;4.60;;;23.90;99.90;;;;;;5080260;28;20048;-51
2022/09/05 09:39:29;;;;;;;7.93;5.03;;;24.00;99.90;;;;;;5099802;28;20048;-51
2022/09/05 09:41:57;;;;;;;6.90;3.97;;;24.20;99.90;;;;;;5100823;28;20118;-51
2022/09/05 09:44:41;;;;;;;7.38;4.10;;;24.30;99.90;;;;;;5100912;28;20052;-50
2022/09/05 09:47:13;;;;;;;10.18;4.40;;;24.30;99.90;;;;;;5101046;28;20042;-53
2022/09/05 09:49:59;;;;;;;;;;;24.50;99.90;;;;;;5100854;28;20035;-53
2022/09/05 09:52:59;;;;;;;7.68;3.47;;;24.60;99.90;;;;;;5101059;28;19924;-51
2022/09/05 09:55:45;;;;;;;7.90;3.60;;;24.70;99.90;;;;;;5100936;28;20067;-52
2022/09/05 09:58:14;;;;;;;9.13;3.90;;;24.70;99.90;;;;;;5100171;28;20091;-52
2022/09/05 10:00:56;;;;;;;7.72;3.92;;;24.80;99.90;;;;;;5100881;28;20052;-50
2022/09/05 10:03:31;;;;;;;6.38;3.70;;;24.80;99.90;;;;;;5100573;28;20044;-52
2022/09/05 10:06:24;;;;;;;8.60;3.70;;;24.90;99.90;;;;;;5100400;28;20048;-53
2022/09/05 10:09:03;;;;;;;6.82;3.20;;;25.00;99.90;;;;;;5100499;28;20123;-52
2022/09/05 10:11:48;;;;;;;8.82;3.53;;;25.00;99.90;;;;;;5099909;28;20048;-52
2022/09/05 10:14:35;;;;;;;9.00;4.07;;;25.10;99.90;;;;;;5100448;28;20123;-53
2022/09/05 10:17:01;;;;;;;11.52;4.10;;;25.10;99.90;;;;;;5091730;28;20482;-52
2022/09/05 10:20:01;;;;;;;9.05;4.13;;;25.10;99.90;;;;;;5079452;28;20047;-53
2022/09/05 10:22:47;;;;;;;9.70;3.47;;;25.20;99.90;;;;;;5080204;28;20104;-52
2022/09/05 10:25:25;;;;;;;7.78;3.80;;;25.30;99.90;;;;;;5080170;28;20048;-52
2022/09/05 10:28:13;;;;;;;7.82;3.67;;;25.30;99.90;;;;;;5078172;28;20056;-53
2022/09/05 10:30:40;;;;;;;9.73;4.28;;;25.40;99.90;;;;;;5080073;28;20078;-53
2022/09/05 10:33:21;;;;;;;8.63;3.42;;;25.50;99.90;;;;;;5079617;28;20053;-53
2022/09/05 10:35:57;;;;;;;8.43;3.30;;;25.50;99.70;;;;;;5062222;28;20049;-52
2022/09/05 10:38:39;;;;;;;9.05;3.58;;;25.70;99.30;;;;;;5088765;28;20044;-53
2022/09/05 10:41:16;;;;;;;5.90;3.15;;;25.80;98.80;;;;;;5099411;28;20048;-52
2022/09/05 10:43:55;;;;;;;8.20;3.10;;;25.80;99.00;;;;;;5100241;28;20323;-53
2022/09/05 10:46:52;;;;;;;8.27;3.22;;;25.90;99.00;;;;;;5099549;28;20044;-50
2022/09/05 10:49:24;;;;;;;9.40;3.17;;;25.90;98.30;;;;;;5099299;28;20065;-56
2022/09/05 10:52:16;;;;;;;7.63;3.47;;;25.90;98.20;;;;;;5099850;28;20044;-53
2022/09/05 10:54:54;;;;;;;;;;;25.90;98.30;;;;;;5097288;28;20520;-52
2022/09/05 10:57:57;;;;;;;6.90;2.92;;;26.10;97.90;;;;;;5099385;28;19920;-52
2022/09/05 11:00:56;;;;;;;6.57;2.55;;;26.20;98.00;;;;;;5099624;28;20079;-53
2022/09/05 11:03:29;;;;;;;7.38;2.70;;;26.40;97.90;;;;;;5099074;28;20059;-49
2022/09/05 11:06:04;;;;;;;5.68;2.55;;;26.60;96.70;;;;;;5099325;28;20044;-51
2022/09/05 11:08:35;;;;;;;5.20;2.20;;;26.60;97.00;;;;;;5099490;28;20123;-53
2022/09/05 11:11:12;;;;;;;6.23;2.43;;;26.60;96.50;;;;;;5098594;28;20048;-53
2022/09/05 11:13:51;;;;;;;6.40;2.60;;;26.70;96.60;;;;;;5099615;28;20040;-53
2022/09/05 11:16:37;;;;;;;8.13;2.78;;;26.80;96.40;;;;;;5096692;28;20080;-52
2022/09/05 11:19:23;;;;;;;6.40;2.22;;;26.80;95.70;;;;;;5078657;28;20053;-52
2022/09/05 11:22:00;;;;;;;5.38;2.25;;;26.80;96.20;;;;;;5078948;28;20044;-53
2022/09/05 11:24:49;;;;;;;6.28;2.25;;;26.70;96.10;;;;;;5078306;28;20036;-53
2022/09/05 11:27:35;;;;;;;4.82;2.42;;;26.80;96.30;;;;;;5077562;28;20046;-50
2022/09/05 11:30:05;;;;;;;6.25;2.15;;;26.90;95.90;;;;;;5078717;28;20074;-53
2022/09/05 11:32:49;;;;;;;5.72;2.28;;;27.00;96.40;;;;;;5078107;28;20055;-53
2022/09/05 11:35:34;;;;;;;5.13;2.40;;;27.10;95.80;;;;;;5078859;28;20040;-52
2022/09/05 11:38:09;;;;;;;6.05;2.40;;;27.30;95.60;;;;;;5085647;28;20052;-53
2022/09/05 11:40:47;;;;;;;6.35;2.50;;;27.30;95.70;;;;;;5098108;28;20044;-51
2022/09/05 11:43:43;;;;;;;4.75;2.35;;;27.30;95.50;;;;;;5098990;28;20058;-53
2022/09/05 11:46:34;;;;;;;7.55;2.60;;;27.30;95.70;;;;;;5098439;28;20077;-53
2022/09/05 11:49:05;;;;;;;5.85;2.67;;;27.10;95.50;;;;;;5097994;28;20492;-53
2022/09/05 11:51:50;;;;;;;4.97;2.38;;;27.00;95.80;;;;;;5098426;28;20040;-53
2022/09/05 11:54:38;;;;;;;6.30;2.85;;;27.00;95.80;;;;;;5098027;28;20083;-51
2022/09/05 11:57:15;;;;;;;5.03;2.53;;;26.90;95.40;;;;;;5098762;28;20051;-53
2022/09/05 12:00:00;;;;;;;6.05;2.78;;;26.90;95.50;;;;;;5098561;28;20067;-52
2022/09/05 12:03:02;;;;;;;6.22;2.72;;;26.80;95.50;;;;;;5097848;28;20063;-51
2022/09/05 12:05:58;;;;;;;6.30;2.85;;;27.00;95.70;;;;;;5098594;28;20048;-53
2022/09/05 12:08:34;;;;;;;5.85;2.70;;;27.20;95.70;;;;;;5098613;28;20072;-53
2022/09/05 12:11:05;;;;;;;8.70;3.00;;;27.20;95.50;;;;;;5097369;28;20048;-51
2022/09/05 12:14:01;;;;;;;8.15;2.85;;;27.40;95.60;;;;;;5098705;28;20059;-53
2022/09/05 12:17:05;;;;;;;8.13;3.35;;;27.60;95.40;;;;;;5094172;28;20051;-50
2022/09/05 12:19:40;;;;;;;5.03;2.55;;;27.50;95.10;;;;;;5061292;28;20045;-53
2022/09/05 12:22:25;;;;;;;6.82;2.50;;;27.40;95.40;;;;;;5078297;28;20128;-50
2022/09/05 12:25:12;;;;;;;5.82;2.60;;;27.50;94.70;;;;;;5077706;28;20479;-51
2022/09/05 12:27:38;;;;;;;6.95;2.90;;;27.50;95.10;;;;;;5077521;28;20033;-53
2022/09/05 12:30:10;;;;;;;6.78;2.90;;;27.60;95.10;;;;;;5077929;28;20059;-53
2022/09/05 12:32:52;;;;;;;5.38;2.63;;;27.60;94.80;;;;;;5077191;28;20036;-54
2022/09/05 12:35:33;;;;;;;9.10;3.20;;;27.50;94.80;;;;;;5078154;28;20076;-53
2022/09/05 12:38:27;;;;;;;5.95;2.67;;;27.50;95.00;;;;;;5084653;28;20072;-53
2022/09/05 12:41:18;;;;;;;6.25;2.80;;;27.40;94.70;;;;;;5097231;28;20079;-53
2022/09/05 12:44:10;;;;;;;6.38;2.78;;;27.40;94.80;;;;;;5097109;28;20063;-53
2022/09/05 12:46:46;;;;;;;6.05;2.30;;;27.50;94.50;;;;;;5087214;28;20058;-52
2022/09/05 12:49:55;;;;;;;6.00;2.83;;;27.60;94.30;;;;;;5097659;28;20055;-53
2022/09/05 12:52:45;;;;;;;6.57;2.78;;;27.70;94.60;;;;;;5094429;28;20066;-53
2022/09/05 12:55:16;;;;;;;6.13;2.90;;;27.80;94.40;;;;;;5097877;28;20048;-53
2022/09/05 12:57:43;;;;;;;6.97;2.80;;;27.90;94.70;;;;;;5095979;28;20044;-53
2022/09/05 13:00:13;;;;;;;6.13;2.75;;;27.90;94.80;;;;;;5097869;28;20403;-53
2022/09/05 13:02:44;;;;;;;6.05;2.80;;;27.90;94.70;;;;;;5099317;28;20039;-52
2022/09/05 13:05:15;;;;;;;6.13;3.03;;;28.00;95.10;;;;;;5100657;28;20052;-52
2022/09/05 13:07:55;;;;;;;6.07;3.10;;;28.00;94.60;;;;;;5101721;28;20036;-52
2022/09/05 13:10:38;;;;;;;5.88;3.08;;;27.90;94.50;;;;;;5100916;28;20051;-50
2022/09/05 13:13:28;;;;;;;7.43;3.25;;;27.80;94.50;;;;;;5101797;28;20059;-52
2022/09/05 13:15:55;;;;;;;6.75;2.95;;;27.80;94.70;;;;;;5096902;28;20055;-50
2022/09/05 13:18:33;;;;;;;5.32;2.90;;;27.80;94.70;;;;;;5081811;28;20086;-52
2022/09/05 13:21:09;;;;;;;5.47;2.55;;;27.80;94.50;;;;;;5081330;28;20053;-52
2022/09/05 13:24:20;;;;;;;6.15;3.40;;;27.70;94.80;;;;;;5080767;28;20063;-51
2022/09/05 13:26:55;;;;;;;6.10;3.30;;;27.70;94.50;;;;;;5061950;28;20481;-53
2022/09/05 13:29:27;;;;;;;6.13;3.20;;;27.60;94.60;;;;;;5081160;28;20110;-52
2022/09/05 13:32:04;;;;;;;6.13;3.22;;;27.60;94.80;;;;;;5080634;28;20051;-52
2022/09/05 13:34:47;;;;;;;6.45;3.50;;;27.60;94.60;;;;;;5081011;28;20072;-53
2022/09/05 13:37:16;;;;;;;11.13;3.38;;;27.50;94.80;;;;;;5080748;28;20040;-53
2022/09/05 13:39:51;;;;;;;8.40;2.95;;;27.50;94.90;;;;;;5101255;28;20044;-53
2022/09/05 13:42:21;;;;;;;5.63;2.55;;;27.40;95.10;;;;;;5101187;28;20048;-53
2022/09/05 13:44:53;;;;;;;6.43;3.53;;;27.40;94.70;;;;;;5099215;28;20048;-53
2022/09/05 13:47:38;;;;;;;6.32;3.15;;;27.40;94.70;;;;;;5101037;28;20127;-53
2022/09/05 13:50:26;;;;;;;6.15;3.20;;;27.40;94.40;;;;;;5100605;28;20048;-53
2022/09/05 13:52:52;;;;;;;9.13;3.20;;;27.50;94.50;;;;;;5100847;28;20170;-50
2022/09/05 13:55:20;;;;;;;6.13;3.10;;;27.60;94.20;;;;;;5101010;28;20640;-53
2022/09/05 13:58:10;;;;;;;6.05;3.00;;;27.60;94.50;;;;;;5100109;28;20052;-53
2022/09/05 14:00:38;;;;;;;6.05;3.00;;;27.70;94.50;;;;;;5101085;28;20051;-53
2022/09/05 14:03:30;;;;;;;7.95;3.05;;;27.60;94.00;;;;;;5100315;28;20048;-52